Time;durP1;ratioP1;P1;durP2;ratioP2;P2;SDS_P1;SDS_P2;PMS_P1;PMS_P2;Temp;Humidity;BMP_temperature;BMP_pressure;BME280_temperature;BME280_humidity;BME280_pressure;Samples;Min_cycle;Max_cycle;Signal;HPM_P1;HPM_P2
2022/01/31 00:00:19;;;;;;;25.57;6.60;;;;;;;;;;5016798;28;20270;-73
2022/01/31 00:02:48;;;;;;;27.00;7.20;;;;;;;;;;5016237;28;20286;-78
2022/01/31 00:05:19;;;;;;;28.30;7.00;;;;;;;;;;5015806;28;20222;-76
2022/01/31 00:07:47;;;;;;;28.63;6.27;;;;;;;;;;5016925;28;20228;-79
2022/01/31 00:10:25;;;;;;;32.60;6.23;;;;;;;;;;5016471;28;20205;-77
2022/01/31 00:12:59;;;;;;;31.07;7.33;;;;;;;;;;5016150;28;20724;-75
2022/01/31 00:15:27;;;;;;;34.10;7.63;;;;;;;;;;5016154;28;20293;-74
2022/01/31 00:17:56;;;;;;;30.23;6.33;;;;;;;;;;4996779;28;20232;-75
2022/01/31 00:20:26;;;;;;;32.10;6.83;;;;;;;;;;5016218;28;20706;-76
2022/01/31 00:22:54;;;;;;;27.60;8.27;;;;;;;;;;5015904;28;20217;-73
2022/01/31 00:25:22;;;;;;;29.63;6.67;;;;;;;;;;5015822;28;20284;-74
2022/01/31 00:27:51;;;;;;;28.47;6.27;;;;;;;;;;5016062;28;20239;-76
2022/01/31 00:30:20;;;;;;;27.63;6.47;;;;;;;;;;5015453;28;20198;-75
2022/01/31 00:32:48;;;;;;;26.80;7.07;;;;;;;;;;5015595;28;20213;-75
2022/01/31 00:35:17;;;;;;;29.83;6.97;;;;;;;;;;5015943;28;20196;-74
2022/01/31 00:37:47;;;;;;;31.97;6.40;;;;;;;;;;5015938;28;20689;-76
2022/01/31 00:40:15;;;;;;;29.57;6.50;;;;;;;;;;5015811;28;20231;-77
2022/01/31 00:42:44;;;;;;;27.67;6.67;;;;;;;;;;5015637;28;20712;-74
2022/01/31 00:45:17;;;;;;;28.93;7.10;;;;;;;;;;5015796;28;20244;-75
2022/01/31 00:47:48;;;;;;;32.00;7.00;;;;;;;;;;5015940;28;20233;-76
2022/01/31 00:50:19;;;;;;;30.13;7.17;;;;;;;;;;5015539;28;20210;-73
2022/01/31 00:52:48;;;;;;;25.87;7.07;;;;;;;;;;5015103;28;20202;-73
2022/01/31 00:55:17;;;;;;;29.53;7.23;;;;;;;;;;5015683;28;20209;-76
2022/01/31 00:57:46;;;;;;;27.33;6.80;;;;;;;;;;5015617;28;20308;-77
2022/01/31 01:00:16;;;;;;;28.33;7.60;;;;;;;;;;5014984;28;20682;-75
2022/01/31 01:02:45;;;;;;;27.97;6.67;;;;;;;;;;5015420;28;20217;-77
2022/01/31 01:05:13;;;;;;;32.87;7.40;;;;;;;;;;5015279;28;20275;-75
2022/01/31 01:07:45;;;;;;;28.17;6.97;;;;;;;;;;5015618;28;20230;-75
2022/01/31 01:10:16;;;;;;;29.43;6.83;;;;;;;;;;5015149;28;20241;-74
2022/01/31 01:12:45;;;;;;;24.03;6.70;;;;;;;;;;5015059;28;20210;-75
2022/01/31 01:15:13;;;;;;;25.50;6.97;;;;;;;;;;5015198;28;20621;-75
2022/01/31 01:17:42;;;;;;;24.60;7.07;;;;;;;;;;5015388;28;20223;-75
2022/01/31 01:20:11;;;;;;;25.00;7.30;;;;;;;;;;5014884;28;20239;-77
2022/01/31 01:22:39;;;;;;;20.47;6.53;;;;;;;;;;5015039;28;20204;-75
2022/01/31 01:25:08;;;;;;;23.53;7.20;;;;;;;;;;5014839;28;20634;-76
2022/01/31 01:27:38;;;;;;;22.20;6.13;;;;;;;;;;5014692;28;20224;-74
2022/01/31 01:30:09;;;;;;;24.93;6.63;;;;;;;;;;5013587;28;20218;-72
2022/01/31 01:32:48;;;;;;;24.30;6.97;;;;;;;;;;5013926;28;20207;-73
2022/01/31 01:35:18;;;;;;;19.63;6.33;;;;;;;;;;5014670;28;20564;-74
2022/01/31 01:37:47;;;;;;;21.40;6.40;;;;;;;;;;5014683;28;20700;-74
2022/01/31 01:40:15;;;;;;;29.53;6.70;;;;;;;;;;5014517;28;20256;-76
2022/01/31 01:42:45;;;;;;;23.37;6.67;;;;;;;;;;5013651;28;20205;-77
2022/01/31 01:45:14;;;;;;;22.90;6.40;;;;;;;;;;5014439;28;20287;-76
2022/01/31 01:47:42;;;;;;;17.53;5.80;;;;;;;;;;5014839;28;20630;-76
2022/01/31 01:50:11;;;;;;;16.73;6.33;;;;;;;;;;5014637;28;20214;-77
2022/01/31 01:52:39;;;;;;;19.90;6.03;;;;;;;;;;5014294;28;20609;-73
2022/01/31 01:55:08;;;;;;;17.00;5.70;;;;;;;;;;5014740;28;20211;-76
2022/01/31 01:57:37;;;;;;;18.27;5.73;;;;;;;;;;5013961;28;20231;-75
2022/01/31 02:00:09;;;;;;;18.87;5.47;;;;;;;;;;5014432;28;20288;-77
2022/01/31 02:02:37;;;;;;;23.93;6.67;;;;;;;;;;4997032;28;20263;-76
2022/01/31 02:05:06;;;;;;;17.43;6.07;;;;;;;;;;5014117;28;20225;-77
2022/01/31 02:07:36;;;;;;;17.80;6.20;;;;;;;;;;5014287;28;20223;-73
2022/01/31 02:10:06;;;;;;;15.10;5.40;;;;;;;;;;5014143;28;20254;-74
2022/01/31 02:12:40;;;;;;;13.77;4.77;;;;;;;;;;5013471;28;20225;-74
2022/01/31 02:15:11;;;;;;;20.23;5.30;;;;;;;;;;5014216;28;20241;-79
2022/01/31 02:17:40;;;;;;;19.13;5.20;;;;;;;;;;5014201;28;20225;-76
2022/01/31 02:20:10;;;;;;;17.63;5.50;;;;;;;;;;5013788;28;20204;-73
2022/01/31 02:22:40;;;;;;;13.23;5.27;;;;;;;;;;5013869;28;20207;-75
2022/01/31 02:25:10;;;;;;;14.10;4.67;;;;;;;;;;5013597;28;20262;-78
2022/01/31 02:27:39;;;;;;;12.30;4.80;;;;;;;;;;5000844;28;20236;-75
2022/01/31 02:30:09;;;;;;;12.77;5.17;;;;;;;;;;5004086;28;20665;-75
2022/01/31 02:32:38;;;;;;;16.83;5.00;;;;;;;;;;5013440;28;20211;-75
2022/01/31 02:35:07;;;;;;;16.73;4.90;;;;;;;;;;5013650;28;20211;-75
2022/01/31 02:37:36;;;;;;;16.50;5.43;;;;;;;;;;5014358;28;20221;-78
2022/01/31 02:40:06;;;;;;;19.07;5.70;;;;;;;;;;5055052;22;20237;-77
2022/01/31 02:42:35;;;;;;;12.37;5.17;;;;;;;;;;5053040;28;20664;-73
2022/01/31 02:45:05;;;;;;;16.63;4.63;;;;;;;;;;5037129;28;20193;-77
2022/01/31 02:47:38;;;;;;;21.70;5.90;;;;;;;;;;5033323;28;20218;-75
2022/01/31 02:50:08;;;;;;;17.13;5.73;;;;;;;;;;5033710;28;20308;-75
2022/01/31 02:52:37;;;;;;;12.60;5.23;;;;;;;;;;5033788;28;20205;-76
2022/01/31 02:55:07;;;;;;;16.33;5.47;;;;;;;;;;5016976;28;20197;-74
2022/01/31 02:57:35;;;;;;;12.17;5.40;;;;;;;;;;5013526;28;20695;-74
2022/01/31 03:00:04;;;;;;;10.70;5.60;;;;;;;;;;5013322;28;20234;-76
2022/01/31 03:02:33;;;;;;;16.20;6.13;;;;;;;;;;5013931;28;20209;-75
2022/01/31 03:05:01;;;;;;;12.70;5.30;;;;;;;;;;5012886;28;20196;-77
2022/01/31 03:07:30;;;;;;;12.83;5.03;;;;;;;;;;5013540;28;20737;-74
2022/01/31 03:09:58;;;;;;;14.47;4.73;;;;;;;;;;5013327;28;20212;-75
2022/01/31 03:12:28;;;;;;;15.43;4.97;;;;;;;;;;5013648;28;20212;-78
2022/01/31 03:14:56;;;;;;;12.60;5.10;;;;;;;;;;5012801;28;20247;-73
2022/01/31 03:17:25;;;;;;;17.57;5.53;;;;;;;;;;5013542;28;20217;-74
2022/01/31 03:19:54;;;;;;;15.20;5.40;;;;;;;;;;5013813;28;20257;-77
2022/01/31 03:22:24;;;;;;;14.33;5.47;;;;;;;;;;5013570;28;20262;-75
2022/01/31 03:24:52;;;;;;;13.73;5.13;;;;;;;;;;5012738;28;20648;-75
2022/01/31 03:27:21;;;;;;;16.97;5.70;;;;;;;;;;5012794;28;20287;-74
2022/01/31 03:29:51;;;;;;;16.30;5.73;;;;;;;;;;5013665;28;20206;-74
2022/01/31 03:32:19;;;;;;;16.17;6.30;;;;;;;;;;5013582;28;20594;-74
2022/01/31 03:34:47;;;;;;;16.43;6.57;;;;;;;;;;5013125;28;20741;-77
2022/01/31 03:37:16;;;;;;;15.57;5.67;;;;;;;;;;5013779;28;20220;-75
2022/01/31 03:39:46;;;;;;;16.13;5.63;;;;;;;;;;5013310;28;20221;-77
2022/01/31 03:42:18;;;;;;;13.57;5.33;;;;;;;;;;5013577;28;20342;-74
2022/01/31 03:44:47;;;;;;;12.70;5.77;;;;;;;;;;5013871;28;20259;-77
2022/01/31 03:47:17;;;;;;;16.37;6.23;;;;;;;;;;5012675;28;20218;-78
2022/01/31 03:49:45;;;;;;;15.97;6.87;;;;;;;;;;5014442;28;20579;-77
2022/01/31 03:52:14;;;;;;;16.67;7.07;;;;;;;;;;5018749;28;20204;-80
2022/01/31 03:54:42;;;;;;;16.43;6.10;;;;;;;;;;5015658;28;20213;-74
2022/01/31 03:57:11;;;;;;;18.13;6.73;;;;;;;;;;5006267;28;20560;-82
2022/01/31 03:59:39;;;;;;;14.97;6.60;;;;;;;;;;4994691;28;20211;-82
2022/01/31 04:02:08;;;;;;;16.53;7.57;;;;;;;;;;5006816;28;20667;-78
2022/01/31 04:04:38;;;;;;;17.70;7.50;;;;;;;;;;5020937;28;20665;-78
2022/01/31 04:07:07;;;;;;;17.07;6.87;;;;;;;;;;5021515;28;20229;-78
2022/01/31 04:09:35;;;;;;;18.80;7.63;;;;;;;;;;5021596;28;20259;-81
2022/01/31 04:12:04;;;;;;;18.33;6.73;;;;;;;;;;5017310;28;20202;-78
2022/01/31 04:14:32;;;;;;;22.87;7.90;;;;;;;;;;5018682;28;20220;-80
2022/01/31 04:17:01;;;;;;;13.53;6.43;;;;;;;;;;5020739;28;20235;-79
2022/01/31 04:19:30;;;;;;;19.00;7.67;;;;;;;;;;5018927;28;20209;-81
2022/01/31 04:22:00;;;;;;;13.57;7.10;;;;;;;;;;5017495;28;20194;-79
2022/01/31 04:24:32;;;;;;;16.10;7.30;;;;;;;;;;5017873;28;20215;-77
2022/01/31 04:27:05;;;;;;;19.53;8.67;;;;;;;;;;5017235;28;20625;-78
2022/01/31 04:29:36;;;;;;;17.90;8.13;;;;;;;;;;5017815;28;20196;-78
2022/01/31 04:32:05;;;;;;;15.63;8.00;;;;;;;;;;5018711;28;20566;-83
2022/01/31 04:34:34;;;;;;;12.47;8.63;;;;;;;;;;5016801;28;20209;-84
2022/01/31 04:37:04;;;;;;;20.20;9.10;;;;;;;;;;5020224;28;20260;-78
2022/01/31 04:39:33;;;;;;;12.07;7.57;;;;;;;;;;5022788;28;20221;-77
2022/01/31 04:42:02;;;;;;;20.53;9.10;;;;;;;;;;5020915;28;20670;-81
2022/01/31 04:44:30;;;;;;;14.30;7.50;;;;;;;;;;5021387;28;20237;-77
2022/01/31 04:46:59;;;;;;;18.13;8.90;;;;;;;;;;5021898;28;20217;-81
2022/01/31 04:49:28;;;;;;;15.47;9.50;;;;;;;;;;5016806;28;20221;-77
2022/01/31 04:51:56;;;;;;;17.83;9.20;;;;;;;;;;5025958;28;20197;-77
2022/01/31 04:54:26;;;;;;;16.43;8.87;;;;;;;;;;5023597;28;20212;-76
2022/01/31 04:56:54;;;;;;;13.93;8.70;;;;;;;;;;5013637;28;20205;-81
2022/01/31 04:59:23;;;;;;;13.50;8.73;;;;;;;;;;4996883;28;20213;-79
2022/01/31 05:01:52;;;;;;;13.20;7.57;;;;;;;;;;5009641;28;20213;-78
2022/01/31 05:04:20;;;;;;;14.70;8.73;;;;;;;;;;5015955;28;20204;-83
2022/01/31 05:06:49;;;;;;;12.67;8.70;;;;;;;;;;5019104;28;20690;-78
2022/01/31 05:09:17;;;;;;;12.90;8.13;;;;;;;;;;5022434;28;20204;-79
2022/01/31 05:11:47;;;;;;;10.53;8.20;;;;;;;;;;5016407;28;20244;-80
2022/01/31 05:14:17;;;;;;;12.03;7.80;;;;;;;;;;5015942;28;20612;-80
2022/01/31 05:16:46;;;;;;;11.53;7.47;;;;;;;;;;5015006;28;20562;-83
2022/01/31 05:19:15;;;;;;;11.37;7.53;;;;;;;;;;5016424;28;20239;-86
2022/01/31 05:21:43;;;;;;;8.17;6.57;;;;;;;;;;5016025;28;20255;-83
2022/01/31 05:24:11;;;;;;;8.23;6.10;;;;;;;;;;5024917;28;20212;-85
2022/01/31 05:26:40;;;;;;;8.37;6.10;;;;;;;;;;5030120;28;20279;-81
2022/01/31 05:29:10;;;;;;;6.80;5.17;;;;;;;;;;5015783;28;20224;-80
2022/01/31 05:31:38;;;;;;;6.90;5.17;;;;;;;;;;5015919;28;20211;-83
2022/01/31 05:34:07;;;;;;;5.50;4.70;;;;;;;;;;5015453;28;20587;-83
2022/01/31 05:36:35;;;;;;;5.83;5.07;;;;;;;;;;5015224;28;20203;-82
2022/01/31 05:39:04;;;;;;;5.67;5.07;;;;;;;;;;5015157;28;20220;-87
2022/01/31 05:41:32;;;;;;;6.70;4.70;;;;;;;;;;5015974;28;20220;-82
2022/01/31 05:44:01;;;;;;;5.80;4.93;;;;;;;;;;5015683;28;20207;-83
2022/01/31 05:46:31;;;;;;;6.60;5.90;;;;;;;;;;5015847;28;20208;-84
2022/01/31 05:48:59;;;;;;;7.33;6.03;;;;;;;;;;5015994;28;20220;-85
2022/01/31 05:51:28;;;;;;;6.87;6.17;;;;;;;;;;5015645;28;20201;-80
2022/01/31 05:53:57;;;;;;;6.83;6.07;;;;;;;;;;5015462;28;20208;-80
2022/01/31 05:56:25;;;;;;;7.47;6.50;;;;;;;;;;5015457;28;20215;-84
2022/01/31 05:58:54;;;;;;;7.87;6.63;;;;;;;;;;5015502;28;20267;-81
2022/01/31 06:01:22;;;;;;;8.33;7.40;;;;;;;;;;5017071;28;20239;-81
2022/01/31 06:03:52;;;;;;;8.33;7.53;;;;;;;;;;5014917;28;20743;-83
2022/01/31 06:06:21;;;;;;;9.70;8.00;;;;;;;;;;5015776;28;20284;-84
2022/01/31 06:08:49;;;;;;;8.97;8.03;;;;;;;;;;5015231;28;20274;-76
2022/01/31 06:11:18;;;;;;;9.23;8.23;;;;;;;;;;5026205;28;20578;-76
2022/01/31 06:13:47;;;;;;;11.07;9.30;;;;;;;;;;5026767;28;20204;-78
2022/01/31 06:16:15;;;;;;;9.63;8.20;;;;;;;;;;5019073;28;20223;-76
2022/01/31 06:18:44;;;;;;;10.17;8.43;;;;;;;;;;5025536;28;20237;-82
2022/01/31 06:21:14;;;;;;;10.70;9.13;;;;;;;;;;5015789;28;20197;-81
2022/01/31 06:23:42;;;;;;;10.17;9.07;;;;;;;;;;4997084;28;20205;-84
2022/01/31 06:26:10;;;;;;;11.07;9.67;;;;;;;;;;5014721;28;20255;-79
2022/01/31 06:28:40;;;;;;;12.30;10.00;;;;;;;;;;5014074;28;20221;-80
2022/01/31 06:31:08;;;;;;;12.77;10.83;;;;;;;;;;5023099;28;20201;-76
2022/01/31 06:33:37;;;;;;;12.93;10.93;;;;;;;;;;5040141;28;20265;-76
2022/01/31 06:36:06;;;;;;;12.80;11.43;;;;;;;;;;5020256;28;20201;-76
2022/01/31 06:38:38;;;;;;;15.73;12.80;;;;;;;;;;5022252;28;20288;-76
2022/01/31 06:41:07;;;;;;;16.33;13.67;;;;;;;;;;5023032;28;20221;-78
2022/01/31 06:43:35;;;;;;;17.63;12.63;;;;;;;;;;5026163;28;20255;-78
2022/01/31 06:46:04;;;;;;;16.83;14.10;;;;;;;;;;5024943;28;20197;-78
2022/01/31 06:48:32;;;;;;;19.53;13.90;;;;;;;;;;5024797;28;20249;-77
2022/01/31 06:51:01;;;;;;;17.33;13.87;;;;;;;;;;5026666;28;20228;-77
2022/01/31 06:53:29;;;;;;;19.33;14.00;;;;;;;;;;5025802;28;20200;-77
2022/01/31 06:56:00;;;;;;;18.07;14.00;;;;;;;;;;5024941;28;20208;-76
2022/01/31 06:58:29;;;;;;;16.90;13.57;;;;;;;;;;5021850;28;20226;-75
2022/01/31 07:00:58;;;;;;;18.27;13.03;;;;;;;;;;5025648;28;20212;-77
2022/01/31 07:03:27;;;;;;;17.67;13.83;;;;;;;;;;5031527;28;20228;-78
2022/01/31 07:05:55;;;;;;;17.00;13.67;;;;;;;;;;5020273;28;20544;-77
2022/01/31 07:08:24;;;;;;;16.97;13.50;;;;;;;;;;5023542;28;20236;-75
2022/01/31 07:10:52;;;;;;;17.97;13.80;;;;;;;;;;5024956;28;20283;-75
2022/01/31 07:13:36;;;;;;;18.50;13.80;;;;;;;;;;5023529;28;20289;-79
2022/01/31 07:16:04;;;;;;;19.40;14.37;;;;;;;;;;5013607;28;20200;-75
2022/01/31 07:18:34;;;;;;;17.93;13.70;;;;;;;;;;5023405;28;20272;-77
2022/01/31 07:21:03;;;;;;;19.13;14.87;;;;;;;;;;5025291;28;20233;-79
2022/01/31 07:23:51;;;;;;;19.97;15.50;;;;;;;;;;5025106;28;20226;-76
2022/01/31 07:26:19;;;;;;;21.70;15.70;;;;;;;;;;5021648;28;20253;-76
2022/01/31 07:28:49;;;;;;;21.30;14.60;;;;;;;;;;5022840;28;20221;-77
2022/01/31 07:31:17;;;;;;;19.70;14.80;;;;;;;;;;5021722;28;20277;-75
2022/01/31 07:33:46;;;;;;;18.87;14.23;;;;;;;;;;5025158;28;20286;-76
2022/01/31 07:36:14;;;;;;;20.90;14.17;;;;;;;;;;5024712;28;20199;-76
2022/01/31 07:38:43;;;;;;;20.97;13.87;;;;;;;;;;5022568;28;20252;-75
2022/01/31 07:41:14;;;;;;;20.93;14.43;;;;;;;;;;5014091;28;20246;-76
2022/01/31 07:43:44;;;;;;;18.20;13.37;;;;;;;;;;5028888;28;20278;-77
2022/01/31 07:46:15;;;;;;;18.33;12.97;;;;;;;;;;5028836;28;20289;-75
2022/01/31 07:48:43;;;;;;;16.80;12.73;;;;;;;;;;5029280;28;20226;-75
2022/01/31 07:51:12;;;;;;;16.77;13.17;;;;;;;;;;5028796;28;20210;-77
2022/01/31 07:53:40;;;;;;;17.90;13.87;;;;;;;;;;5029895;28;20642;-76
2022/01/31 07:56:10;;;;;;;18.10;13.57;;;;;;;;;;5030153;28;20205;-76
2022/01/31 07:58:39;;;;;;;19.37;13.30;;;;;;;;;;5029642;28;20246;-76
2022/01/31 08:01:08;;;;;;;21.50;13.83;;;;;;;;;;5028884;28;20205;-78
2022/01/31 08:03:38;;;;;;;18.20;13.87;;;;;;;;;;5030165;28;20216;-75
2022/01/31 08:06:07;;;;;;;22.47;12.77;;;;;;;;;;5028001;28;20273;-80
2022/01/31 08:08:36;;;;;;;15.17;12.63;;;;;;;;;;5027846;28;20227;-80
2022/01/31 08:11:05;;;;;;;19.33;13.13;;;;;;;;;;5011999;28;20221;-76
2022/01/31 08:13:34;;;;;;;21.17;12.73;;;;;;;;;;5010009;28;20224;-76
2022/01/31 08:16:09;;;;;;;22.47;12.43;;;;;;;;;;5015270;28;20226;-76
2022/01/31 08:18:41;;;;;;;16.07;11.70;;;;;;;;;;5029890;28;20240;-75
2022/01/31 08:21:09;;;;;;;19.23;11.23;;;;;;;;;;5029773;28;20207;-76
2022/01/31 08:23:38;;;;;;;19.10;11.43;;;;;;;;;;5029231;28;20208;-75
2022/01/31 08:26:08;;;;;;;16.47;8.80;;;;;;;;;;5029442;28;20207;-76
2022/01/31 08:28:40;;;;;;;17.00;9.43;;;;;;;;;;5028854;28;20281;-75
2022/01/31 08:31:14;;;;;;;16.10;9.70;;;;;;;;;;5028409;28;20215;-76
2022/01/31 08:33:49;;;;;;;16.67;8.37;;;;;;;;;;5012461;28;20237;-80
2022/01/31 08:36:18;;;;;;;15.60;7.70;;;;;;;;;;5025581;28;20198;-78
2022/01/31 08:38:47;;;;;;;11.27;6.83;;;;;;;;;;5021649;28;20216;-77
2022/01/31 08:41:15;;;;;;;15.97;7.30;;;;;;;;;;5022511;28;20216;-75
2022/01/31 08:43:44;;;;;;;16.63;7.67;;;;;;;;;;5026347;28;20224;-77
2022/01/31 08:46:14;;;;;;;12.77;6.97;;;;;;;;;;5023589;28;20219;-75
2022/01/31 08:48:43;;;;;;;13.60;6.10;;;;;;;;;;5014759;28;20652;-76
2022/01/31 08:51:13;;;;;;;8.03;4.93;;;;;;;;;;5018737;28;20201;-77
2022/01/31 08:53:41;;;;;;;12.30;5.13;;;;;;;;;;5020173;28;20268;-76
2022/01/31 08:56:11;;;;;;;10.10;5.00;;;;;;;;;;5015935;28;20670;-79
2022/01/31 08:58:44;;;;;;;10.97;4.70;;;;;;;;;;5020723;28;20227;-76
2022/01/31 09:01:17;;;;;;;8.63;4.40;;;;;;;;;;5003004;28;20569;-80
2022/01/31 09:04:07;;;;;;;6.93;3.87;;;;;;;;;;5011150;28;20196;-78
2022/01/31 09:06:37;;;;;;;6.43;3.23;;;;;;;;;;5017383;28;20207;-76
2022/01/31 09:09:08;;;;;;;4.47;2.07;;;;;;;;;;5017177;28;20224;-76
2022/01/31 09:11:38;;;;;;;5.83;2.27;;;;;;;;;;5002539;28;20201;-79
2022/01/31 09:14:07;;;;;;;5.13;2.43;;;;;;;;;;5020276;28;20209;-75
2022/01/31 09:16:36;;;;;;;3.83;1.80;;;;;;;;;;5020515;28;20219;-77
2022/01/31 09:19:04;;;;;;;3.80;2.00;;;;;;;;;;5018559;28;20275;-78
2022/01/31 09:21:34;;;;;;;3.27;1.60;;;;;;;;;;5019667;28;20270;-76
2022/01/31 09:24:04;;;;;;;5.13;2.20;;;;;;;;;;5020103;28;20209;-77
2022/01/31 09:26:32;;;;;;;2.40;1.77;;;;;;;;;;5019042;28;20220;-76
2022/01/31 09:29:00;;;;;;;4.07;2.13;;;;;;;;;;5016527;28;20220;-78
2022/01/31 09:31:29;;;;;;;2.93;1.60;;;;;;;;;;5020391;28;20243;-78
2022/01/31 09:33:57;;;;;;;2.63;1.70;;;;;;;;;;5020342;28;20231;-76
2022/01/31 09:36:27;;;;;;;2.97;1.60;;;;;;;;;;5020054;28;20207;-75
2022/01/31 09:38:56;;;;;;;3.37;1.90;;;;;;;;;;5019876;28;20246;-76
2022/01/31 09:41:28;;;;;;;2.67;1.80;;;;;;;;;;5018446;28;20629;-77
2022/01/31 09:44:11;;;;;;;5.07;3.03;;;;;;;;;;5017190;28;20223;-75
2022/01/31 09:49:17;;;;;;;3.27;1.77;;;;;;;;;;5014118;28;20235;-80
2022/01/31 09:51:46;;;;;;;2.43;1.73;;;;;;;;;;5018559;28;20196;-76
2022/01/31 09:54:14;;;;;;;5.43;2.10;;;;;;;;;;5020353;28;20204;-79
2022/01/31 09:56:46;;;;;;;3.67;1.80;;;;;;;;;;5021568;28;20270;-75
2022/01/31 09:59:15;;;;;;;4.40;2.10;;;;;;;;;;5019389;28;20644;-75
2022/01/31 10:01:46;;;;;;;3.97;1.93;;;;;;;;;;5016742;28;20232;-76
2022/01/31 10:04:18;;;;;;;3.60;2.30;;;;;;;;;;5016726;28;20219;-75
2022/01/31 10:06:47;;;;;;;4.63;2.50;;;;;;;;;;5018028;28;20197;-76
2022/01/31 10:09:17;;;;;;;4.20;2.10;;;;;;;;;;5023243;28;20227;-75
2022/01/31 10:11:50;;;;;;;4.10;2.03;;;;;;;;;;5019496;28;20211;-75
2022/01/31 10:17:08;;;;;;;4.23;2.47;;;;;;;;;;5035787;28;20639;-75
2022/01/31 10:19:51;;;;;;;2.80;2.50;;;;;;;;;;5021902;28;20208;-76
2022/01/31 10:22:20;;;;;;;5.03;2.70;;;;;;;;;;5017735;28;20200;-77
2022/01/31 10:24:49;;;;;;;3.10;2.70;;;;;;;;;;5016995;28;20235;-77
2022/01/31 10:27:22;;;;;;;3.00;2.60;;;;;;;;;;5018351;28;20236;-77
2022/01/31 10:29:52;;;;;;;3.70;2.77;;;;;;;;;;5015358;28;20212;-76
2022/01/31 10:32:26;;;;;;;3.50;2.97;;;;;;;;;;5017925;28;20204;-76
2022/01/31 10:34:56;;;;;;;4.20;3.30;;;;;;;;;;5019481;28;20227;-77
2022/01/31 10:37:26;;;;;;;4.37;3.23;;;;;;;;;;5022307;28;20290;-77
2022/01/31 10:45:45;;;;;;;4.10;3.20;;;;;;;;;;5020209;28;20193;-79
2022/01/31 10:54:25;;;;;;;4.50;3.40;;;;;;;;;;5019277;28;20208;-77
2022/01/31 10:56:54;;;;;;;5.37;3.60;;;;;;;;;;5008671;28;20614;-76
2022/01/31 10:59:24;;;;;;;9.17;5.00;;;;;;;;;;5017992;28;20200;-77
2022/01/31 11:01:53;;;;;;;7.33;4.43;;;;;;;;;;5020895;28;20196;-78
2022/01/31 11:04:33;;;;;;;7.93;5.90;;;;;;;;;;5019738;28;20208;-76
2022/01/31 11:07:03;;;;;;;4.33;3.90;;;;;;;;;;5020279;28;20206;-77
2022/01/31 11:09:32;;;;;;;4.60;3.57;;;;;;;;;;5023727;28;20200;-77
2022/01/31 11:12:01;;;;;;;6.27;4.77;;;;;;;;;;5019521;28;20283;-76
2022/01/31 11:14:31;;;;;;;4.73;3.90;;;;;;;;;;5020017;28;20204;-78
2022/01/31 11:17:00;;;;;;;5.97;4.13;;;;;;;;;;5018211;28;20200;-75
2022/01/31 11:19:32;;;;;;;6.87;4.30;;;;;;;;;;5017394;28;20212;-76
2022/01/31 11:22:04;;;;;;;6.70;3.97;;;;;;;;;;5017704;28;20204;-79
2022/01/31 11:24:37;;;;;;;6.33;4.50;;;;;;;;;;5021555;28;20205;-80
2022/01/31 11:27:09;;;;;;;9.20;4.57;;;;;;;;;;5024441;28;20527;-76
2022/01/31 11:29:41;;;;;;;4.90;3.93;;;;;;;;;;5024333;28;20595;-79
2022/01/31 11:32:10;;;;;;;4.77;3.70;;;;;;;;;;5021181;28;20200;-76
2022/01/31 11:34:40;;;;;;;6.77;3.50;;;;;;;;;;5016805;28;20204;-79
2022/01/31 11:37:09;;;;;;;8.23;5.00;;;;;;;;;;5017531;28;20232;-77
2022/01/31 11:39:39;;;;;;;5.17;3.30;;;;;;;;;;5017802;28;20208;-76
2022/01/31 11:42:08;;;;;;;6.37;3.57;;;;;;;;;;5016136;28;20671;-77
2022/01/31 11:44:46;;;;;;;5.63;3.93;;;;;;;;;;5031177;28;20581;-76
2022/01/31 11:47:14;;;;;;;6.33;4.13;;;;;;;;;;5033791;28;20695;-78
2022/01/31 11:49:44;;;;;;;8.40;5.30;;;;;;;;;;5028938;28;20291;-76
2022/01/31 11:52:12;;;;;;;7.70;3.57;;;;;;;;;;5019332;28;20718;-76
2022/01/31 11:54:48;;;;;;;5.90;3.37;;;;;;;;;;5018133;28;20204;-78
2022/01/31 11:57:17;;;;;;;3.40;3.10;;;;;;;;;;5018282;28;20275;-77
2022/01/31 11:59:52;;;;;;;3.37;2.80;;;;;;;;;;5017578;28;20617;-79
2022/01/31 12:02:22;;;;;;;6.80;2.67;;;;;;;;;;5017374;28;20247;-76
2022/01/31 12:04:52;;;;;;;6.27;2.90;;;;;;;;;;5019423;28;20264;-76
2022/01/31 12:07:30;;;;;;;5.37;2.70;;;;;;;;;;5019307;28;20217;-77
2022/01/31 12:10:03;;;;;;;4.73;2.63;;;;;;;;;;5013728;28;20259;-75
2022/01/31 12:12:39;;;;;;;4.07;2.70;;;;;;;;;;5007751;28;20205;-75
2022/01/31 12:15:54;;;;;;;2.67;1.97;;;;;;;;;;5016851;28;20267;-76
2022/01/31 12:24:33;;;;;;;3.70;2.63;;;;;;;;;;5012727;28;20687;-77
2022/01/31 12:27:06;;;;;;;4.43;2.77;;;;;;;;;;5011679;28;20204;-74
2022/01/31 12:29:36;;;;;;;4.37;2.40;;;;;;;;;;4999544;28;20649;-76
2022/01/31 12:32:12;;;;;;;6.00;4.70;;;;;;;;;;5004334;28;20240;-75
2022/01/31 12:34:49;;;;;;;4.00;2.40;;;;;;;;;;5018268;28;20200;-75
2022/01/31 12:37:31;;;;;;;3.90;2.60;;;;;;;;;;5017769;28;20224;-79
2022/01/31 12:40:04;;;;;;;5.30;2.80;;;;;;;;;;5017760;28;20262;-74
2022/01/31 12:46:14;;;;;;;8.37;2.90;;;;;;;;;;5006670;28;20224;-77
2022/01/31 12:48:43;;;;;;;5.77;4.10;;;;;;;;;;5016743;28;20228;-76
2022/01/31 12:51:15;;;;;;;4.00;2.50;;;;;;;;;;5016708;28;20278;-78
2022/01/31 12:53:49;;;;;;;4.37;2.73;;;;;;;;;;5017131;28;20561;-75
2022/01/31 12:56:25;;;;;;;6.67;2.87;;;;;;;;;;5016476;28;20212;-76
2022/01/31 12:58:58;;;;;;;4.20;2.33;;;;;;;;;;5016758;28;20223;-77
2022/01/31 13:01:27;;;;;;;3.03;1.80;;;;;;;;;;5017560;28;20536;-77
2022/01/31 13:03:57;;;;;;;2.77;2.17;;;;;;;;;;5018437;28;20196;-76
2022/01/31 13:06:26;;;;;;;3.70;2.53;;;;;;;;;;5019751;28;20214;-76
2022/01/31 13:08:56;;;;;;;4.87;2.70;;;;;;;;;;5014820;28;20271;-77
2022/01/31 13:11:29;;;;;;;4.57;2.50;;;;;;;;;;5016321;28;20243;-76
2022/01/31 13:14:11;;;;;;;4.07;2.40;;;;;;;;;;5018710;28;20239;-78
2022/01/31 13:17:07;;;;;;;3.10;1.63;;;;;;;;;;5014036;28;20228;-76
2022/01/31 13:19:37;;;;;;;5.10;2.13;;;;;;;;;;5011685;28;20211;-75
2022/01/31 13:22:08;;;;;;;3.47;2.10;;;;;;;;;;5016637;28;20203;-80
2022/01/31 13:24:42;;;;;;;5.40;2.37;;;;;;;;;;5017372;28;20278;-78
2022/01/31 13:27:11;;;;;;;7.43;3.70;;;;;;;;;;5014639;28;20234;-77
2022/01/31 13:30:00;;;;;;;4.70;1.93;;;;;;;;;;5007951;28;20582;-78
2022/01/31 13:32:35;;;;;;;5.67;2.90;;;;;;;;;;5000199;28;20228;-76
2022/01/31 13:35:08;;;;;;;6.83;3.30;;;;;;;;;;5013107;28;20196;-76
2022/01/31 13:37:41;;;;;;;6.53;3.53;;;;;;;;;;5014390;28;20227;-79
2022/01/31 13:40:13;;;;;;;6.03;2.90;;;;;;;;;;5014646;28;20612;-77
2022/01/31 13:42:43;;;;;;;8.07;3.97;;;;;;;;;;5010235;28;20196;-76
2022/01/31 13:45:14;;;;;;;8.07;4.23;;;;;;;;;;5010051;28;20213;-76
2022/01/31 13:47:48;;;;;;;6.80;2.80;;;;;;;;;;5007642;28;20711;-75
2022/01/31 13:50:18;;;;;;;7.77;3.17;;;;;;;;;;4996492;28;20296;-79
2022/01/31 13:52:53;;;;;;;7.03;2.60;;;;;;;;;;5006681;28;20225;-78
2022/01/31 13:55:23;;;;;;;4.90;2.13;;;;;;;;;;5011029;28;20222;-74
2022/01/31 13:57:52;;;;;;;6.23;2.83;;;;;;;;;;5019002;28;20228;-75
2022/01/31 14:00:23;;;;;;;3.67;2.60;;;;;;;;;;5014673;28;20204;-77
2022/01/31 14:03:04;;;;;;;3.00;2.00;;;;;;;;;;5014574;28;20205;-79
2022/01/31 14:05:35;;;;;;;5.03;2.50;;;;;;;;;;5011031;28;20205;-78
2022/01/31 14:08:04;;;;;;;6.50;2.73;;;;;;;;;;5008625;28;20754;-78
2022/01/31 14:10:38;;;;;;;6.23;3.10;;;;;;;;;;5007291;28;20607;-78
2022/01/31 14:13:07;;;;;;;5.77;2.50;;;;;;;;;;5017188;28;20230;-76
2022/01/31 14:15:41;;;;;;;8.73;3.30;;;;;;;;;;5013470;28;20205;-74
2022/01/31 14:18:10;;;;;;;5.97;2.53;;;;;;;;;;5013526;28;20684;-78
2022/01/31 14:20:39;;;;;;;7.03;3.07;;;;;;;;;;5012683;28;20221;-77
2022/01/31 14:23:10;;;;;;;11.03;2.80;;;;;;;;;;5022664;28;20655;-76
2022/01/31 14:25:41;;;;;;;7.93;2.87;;;;;;;;;;5029889;28;20205;-77
2022/01/31 14:28:11;;;;;;;4.00;2.40;;;;;;;;;;5014730;28;20274;-76
2022/01/31 14:30:46;;;;;;;6.53;2.77;;;;;;;;;;5013976;28;20209;-79
2022/01/31 14:33:15;;;;;;;8.60;2.20;;;;;;;;;;5013843;28;20254;-78
2022/01/31 14:35:49;;;;;;;7.77;2.70;;;;;;;;;;5014335;28;20212;-77
2022/01/31 14:38:21;;;;;;;6.00;2.10;;;;;;;;;;5014430;28;20226;-74
2022/01/31 14:49:21;;;;;;;4.27;2.50;;;;;;;;;;5012984;28;20200;-76
2022/01/31 14:51:50;;;;;;;8.10;3.03;;;;;;;;;;5018991;28;20232;-76
2022/01/31 14:54:19;;;;;;;8.83;3.00;;;;;;;;;;5013577;28;20613;-77
2022/01/31 14:56:49;;;;;;;7.93;3.23;;;;;;;;;;5011792;28;20204;-76
2022/01/31 14:59:26;;;;;;;5.60;2.93;;;;;;;;;;4995039;28;20223;-79
2022/01/31 15:01:55;;;;;;;10.10;3.20;;;;;;;;;;5003286;28;20670;-76
2022/01/31 15:07:29;;;;;;;6.57;3.63;;;;;;;;;;5014560;28;20240;-76
2022/01/31 15:09:57;;;;;;;7.70;3.70;;;;;;;;;;5021526;28;20212;-76
2022/01/31 15:12:28;;;;;;;9.93;4.00;;;;;;;;;;5017505;28;20228;-76
2022/01/31 15:14:57;;;;;;;12.07;4.10;;;;;;;;;;5021573;28;20208;-77
2022/01/31 15:17:26;;;;;;;9.80;3.80;;;;;;;;;;5020970;28;20255;-78
2022/01/31 15:19:54;;;;;;;8.27;4.17;;;;;;;;;;5024514;28;20702;-76
2022/01/31 15:22:29;;;;;;;14.53;4.97;;;;;;;;;;5022829;28;20209;-77
2022/01/31 15:24:57;;;;;;;10.60;5.73;;;;;;;;;;5022802;28;20203;-79
2022/01/31 15:27:26;;;;;;;9.17;5.27;;;;;;;;;;5016746;28;20229;-79
2022/01/31 15:29:56;;;;;;;8.03;5.20;;;;;;;;;;5016259;28;20213;-77